Skip Navigation Links
NOAA logo - Click to go to the NOAA homepage
NOAA's National Weather Service
Alaska Aviation Weather Unit
  NWS logo - Click to go to the NWS homepage
Left Navbar Graphic     02 AKDT = 10 GMT

   
NOAA is celebrating 200 years of science, service, and stewardship. Visit the NOAA 200th celebration Web site to learn more.
USA.gov is the U.S. Government's official Web portal to all Federal, state and local government Web resources and services.
Facebook
NWS on Facebook

AAWU Home :: Display TAF Add Bookmark
METAR PAIN 270416Z AUTO 35006KT 10SM CLR M09/M16 A2964 RMK AO1=

METAR PAIN 270436Z AUTO 34005KT 10SM CLR M09/M16 A2964 RMK AO1=

METAR PAIN 270456Z AUTO 00000KT 10SM CLR M10/M16 A2964 RMK AO1=

METAR PAIN 270516Z AUTO 33003KT 10SM CLR M11/M17 A2964 RMK AO1=

METAR PAIN 270536Z AUTO 31003KT 10SM CLR M11/M16 A2964 RMK AO1=

METAR PAIN 270556Z AUTO 30003KT 10SM CLR M11/M17 A2964 RMK AO1 11040
     21110 52003=

METAR PAIN 270616Z AUTO 00000KT 10SM CLR M12/M17 A2964 RMK AO1=

METAR PAIN 270636Z AUTO 27003KT 10SM CLR M13/M18 A2964 RMK AO1=

METAR PAIN 270656Z AUTO 27003KT 10SM CLR M14/M19 A2964 RMK AO1=

METAR PAIN 270716Z AUTO 23003KT 10SM CLR M15/M19 A2964 RMK AO1=

METAR PAIN 270736Z AUTO 00000KT 10SM CLR M16/M19 A2964 RMK AO1=

METAR PAIN 270756Z AUTO 00000KT 10SM CLR M17/M19 A2964 RMK AO1=

METAR PAIN 270816Z AUTO 00000KT 10SM CLR M17/M20 A2964 RMK AO1=

METAR PAIN 270836Z AUTO 00000KT 10SM FEW085 M18/M21 A2964 RMK AO1=

METAR PAIN 270856Z AUTO 00000KT 10SM FEW085 M18/M21 A2963 RMK AO1
     57003=

METAR PAIN 270916Z AUTO 00000KT 10SM SCT075 M19/M22 A2962 RMK AO1=

METAR PAIN 270936Z AUTO 00000KT 10SM BKN075 M19/M22 A2963 RMK AO1=

METAR PAIN 270956Z AUTO 00000KT 10SM OVC075 M19/M22 A2962 RMK AO1=

METAR PAIN 271016Z AUTO 00000KT 10SM OVC075 M19/M21 A2961 RMK AO1=

METAR PAIN 271036Z AUTO 00000KT 10SM OVC075 M18/M22 A2961 RMK AO1=


NOAA's National Weather Service
Alaska Aviation Weather Unit
6930 Sand Lake Road
Anchorage, AK 99502-1845
Disclaimer
Credits
Glossary
Privacy Policy
About Us
Career Opportunities
Contact AAWU Internet Services Site last modified: April, 17th 2012